<?xml version="1.0" encoding="UTF-8" standalone="no" ?>
<gpx xmlns="http://www.topografix.com/GPX/1/1" xmlns:xsi="http://www.w3.org/2001/XMLSchema-instance" xsi:schemaLocation="http://www.topografix.com/GPX/1/1 http://www.topografix.com/GPX/1/1/gpx.xsd" version="1.1" creator="VisuGPX - https://www.visugpx.com">
  <metadata>
    <name>rauqette à la moulière</name>
    <desc><![CDATA[suivre la piste vvt jusqu'au sommet de l'audiberghe ]]></desc>
  </metadata>
  <trk>
    <name><![CDATA[16 avr. 2018 10:03:04]]></name>
    <cmt><![CDATA[16 avr. 2018 10:03:04]]></cmt>
    <trkseg>
      <trkpt lat="43.75457" lon="6.76307">
        <ele>1354.2</ele>
        <time>2018-04-16T08:03:25Z</time>
      </trkpt>
      <trkpt lat="43.75481" lon="6.76266">
        <ele>1201</ele>
        <time>2018-04-16T08:03:26Z</time>
      </trkpt>
      <trkpt lat="43.7547" lon="6.76247">
        <ele>1269</ele>
        <time>2018-04-16T08:03:29Z</time>
      </trkpt>
      <trkpt lat="43.75449" lon="6.7625">
        <ele>1333</ele>
        <time>2018-04-16T08:04:04Z</time>
      </trkpt>
      <trkpt lat="43.7544" lon="6.76243">
        <ele>1343</ele>
        <time>2018-04-16T08:04:14Z</time>
      </trkpt>
      <trkpt lat="43.7543" lon="6.76238">
        <ele>1352</ele>
        <time>2018-04-16T08:04:25Z</time>
      </trkpt>
      <trkpt lat="43.75411" lon="6.76226">
        <ele>1356</ele>
        <time>2018-04-16T08:04:46Z</time>
      </trkpt>
      <trkpt lat="43.75401" lon="6.76224">
        <ele>1353</ele>
        <time>2018-04-16T08:04:57Z</time>
      </trkpt>
      <trkpt lat="43.75398" lon="6.7622">
        <ele>1353</ele>
        <time>2018-04-16T08:05:02Z</time>
      </trkpt>
      <trkpt lat="43.75394" lon="6.76217">
        <ele>1354</ele>
        <time>2018-04-16T08:05:08Z</time>
      </trkpt>
      <trkpt lat="43.75389" lon="6.76213">
        <ele>1354</ele>
        <time>2018-04-16T08:05:15Z</time>
      </trkpt>
      <trkpt lat="43.75385" lon="6.76212">
        <ele>1355</ele>
        <time>2018-04-16T08:05:22Z</time>
      </trkpt>
      <trkpt lat="43.75374" lon="6.76209">
        <ele>1355</ele>
        <time>2018-04-16T08:05:31Z</time>
      </trkpt>
      <trkpt lat="43.75369" lon="6.76207">
        <ele>1357</ele>
        <time>2018-04-16T08:05:39Z</time>
      </trkpt>
      <trkpt lat="43.75365" lon="6.76204">
        <ele>1358</ele>
        <time>2018-04-16T08:05:47Z</time>
      </trkpt>
      <trkpt lat="43.75362" lon="6.762">
        <ele>1356</ele>
        <time>2018-04-16T08:05:54Z</time>
      </trkpt>
      <trkpt lat="43.75355" lon="6.76188">
        <ele>1359</ele>
        <time>2018-04-16T08:06:04Z</time>
      </trkpt>
      <trkpt lat="43.7535" lon="6.76185">
        <ele>1358</ele>
        <time>2018-04-16T08:06:10Z</time>
      </trkpt>
      <trkpt lat="43.75341" lon="6.76179">
        <ele>1359</ele>
        <time>2018-04-16T08:06:20Z</time>
      </trkpt>
      <trkpt lat="43.75337" lon="6.76176">
        <ele>1358</ele>
        <time>2018-04-16T08:06:25Z</time>
      </trkpt>
      <trkpt lat="43.75334" lon="6.76173">
        <ele>1358</ele>
        <time>2018-04-16T08:06:31Z</time>
      </trkpt>
      <trkpt lat="43.75328" lon="6.7617">
        <ele>1357</ele>
        <time>2018-04-16T08:06:37Z</time>
      </trkpt>
      <trkpt lat="43.75323" lon="6.76169">
        <ele>1358</ele>
        <time>2018-04-16T08:06:45Z</time>
      </trkpt>
      <trkpt lat="43.75314" lon="6.76167">
        <ele>1357</ele>
        <time>2018-04-16T08:06:54Z</time>
      </trkpt>
      <trkpt lat="43.75305" lon="6.76163">
        <ele>1358</ele>
        <time>2018-04-16T08:07:02Z</time>
      </trkpt>
      <trkpt lat="43.75301" lon="6.76159">
        <ele>1359</ele>
        <time>2018-04-16T08:07:07Z</time>
      </trkpt>
      <trkpt lat="43.75293" lon="6.76154">
        <ele>1359</ele>
        <time>2018-04-16T08:07:21Z</time>
      </trkpt>
      <trkpt lat="43.75288" lon="6.76154">
        <ele>1360</ele>
        <time>2018-04-16T08:07:28Z</time>
      </trkpt>
      <trkpt lat="43.75283" lon="6.76156">
        <ele>1360</ele>
        <time>2018-04-16T08:07:35Z</time>
      </trkpt>
      <trkpt lat="43.75279" lon="6.76153">
        <ele>1358</ele>
        <time>2018-04-16T08:07:41Z</time>
      </trkpt>
      <trkpt lat="43.7527" lon="6.76148">
        <ele>1358</ele>
        <time>2018-04-16T08:07:52Z</time>
      </trkpt>
      <trkpt lat="43.75265" lon="6.76147">
        <ele>1357</ele>
        <time>2018-04-16T08:07:58Z</time>
      </trkpt>
      <trkpt lat="43.75256" lon="6.76143">
        <ele>1357</ele>
        <time>2018-04-16T08:08:12Z</time>
      </trkpt>
      <trkpt lat="43.75243" lon="6.7614">
        <ele>1354</ele>
        <time>2018-04-16T08:08:35Z</time>
      </trkpt>
      <trkpt lat="43.75234" lon="6.76136">
        <ele>1357</ele>
        <time>2018-04-16T08:08:47Z</time>
      </trkpt>
      <trkpt lat="43.7523" lon="6.76132">
        <ele>1359</ele>
        <time>2018-04-16T08:08:50Z</time>
      </trkpt>
      <trkpt lat="43.75224" lon="6.76123">
        <ele>1359</ele>
        <time>2018-04-16T08:08:57Z</time>
      </trkpt>
      <trkpt lat="43.7522" lon="6.7612">
        <ele>1360</ele>
        <time>2018-04-16T08:09:02Z</time>
      </trkpt>
      <trkpt lat="43.7521" lon="6.76117">
        <ele>1356</ele>
        <time>2018-04-16T08:09:14Z</time>
      </trkpt>
      <trkpt lat="43.75204" lon="6.76119">
        <ele>1355</ele>
        <time>2018-04-16T08:09:42Z</time>
      </trkpt>
      <trkpt lat="43.752" lon="6.76122">
        <ele>1355</ele>
        <time>2018-04-16T08:09:51Z</time>
      </trkpt>
      <trkpt lat="43.75191" lon="6.76128">
        <ele>1356</ele>
        <time>2018-04-16T08:10:16Z</time>
      </trkpt>
      <trkpt lat="43.75182" lon="6.76142">
        <ele>1364</ele>
        <time>2018-04-16T08:10:45Z</time>
      </trkpt>
      <trkpt lat="43.7518" lon="6.76151">
        <ele>1364</ele>
        <time>2018-04-16T08:10:58Z</time>
      </trkpt>
      <trkpt lat="43.75179" lon="6.76161">
        <ele>1364</ele>
        <time>2018-04-16T08:11:30Z</time>
      </trkpt>
      <trkpt lat="43.75174" lon="6.76164">
        <ele>1367</ele>
        <time>2018-04-16T08:11:36Z</time>
      </trkpt>
      <trkpt lat="43.7517" lon="6.76166">
        <ele>1367</ele>
        <time>2018-04-16T08:11:43Z</time>
      </trkpt>
      <trkpt lat="43.75165" lon="6.76167">
        <ele>1367</ele>
        <time>2018-04-16T08:11:49Z</time>
      </trkpt>
      <trkpt lat="43.7516" lon="6.76169">
        <ele>1370</ele>
        <time>2018-04-16T08:12:19Z</time>
      </trkpt>
      <trkpt lat="43.7515" lon="6.7617">
        <ele>1370</ele>
        <time>2018-04-16T08:12:32Z</time>
      </trkpt>
      <trkpt lat="43.75141" lon="6.7617">
        <ele>1372</ele>
        <time>2018-04-16T08:12:45Z</time>
      </trkpt>
      <trkpt lat="43.75134" lon="6.76173">
        <ele>1372</ele>
        <time>2018-04-16T08:12:55Z</time>
      </trkpt>
      <trkpt lat="43.75123" lon="6.76172">
        <ele>1372</ele>
        <time>2018-04-16T08:13:12Z</time>
      </trkpt>
      <trkpt lat="43.75104" lon="6.76186">
        <ele>1382</ele>
        <time>2018-04-16T08:13:54Z</time>
      </trkpt>
      <trkpt lat="43.75088" lon="6.76189">
        <ele>1387</ele>
        <time>2018-04-16T08:14:18Z</time>
      </trkpt>
      <trkpt lat="43.75084" lon="6.76189">
        <ele>1386</ele>
        <time>2018-04-16T08:14:25Z</time>
      </trkpt>
      <trkpt lat="43.75079" lon="6.76187">
        <ele>1387</ele>
        <time>2018-04-16T08:14:35Z</time>
      </trkpt>
      <trkpt lat="43.75075" lon="6.76191">
        <ele>1387</ele>
        <time>2018-04-16T08:14:46Z</time>
      </trkpt>
      <trkpt lat="43.75071" lon="6.76194">
        <ele>1387</ele>
        <time>2018-04-16T08:14:56Z</time>
      </trkpt>
      <trkpt lat="43.75067" lon="6.76199">
        <ele>1388</ele>
        <time>2018-04-16T08:15:04Z</time>
      </trkpt>
      <trkpt lat="43.75062" lon="6.76204">
        <ele>1387</ele>
        <time>2018-04-16T08:15:21Z</time>
      </trkpt>
      <trkpt lat="43.75054" lon="6.76208">
        <ele>1390</ele>
        <time>2018-04-16T08:15:43Z</time>
      </trkpt>
      <trkpt lat="43.75048" lon="6.76208">
        <ele>1398</ele>
        <time>2018-04-16T08:15:52Z</time>
      </trkpt>
      <trkpt lat="43.75042" lon="6.76209">
        <ele>1399</ele>
        <time>2018-04-16T08:15:58Z</time>
      </trkpt>
      <trkpt lat="43.75036" lon="6.76221">
        <ele>1399</ele>
        <time>2018-04-16T08:16:21Z</time>
      </trkpt>
      <trkpt lat="43.75032" lon="6.76227">
        <ele>1401</ele>
        <time>2018-04-16T08:16:31Z</time>
      </trkpt>
      <trkpt lat="43.75023" lon="6.76233">
        <ele>1403</ele>
        <time>2018-04-16T08:16:48Z</time>
      </trkpt>
      <trkpt lat="43.75014" lon="6.76236">
        <ele>1402</ele>
        <time>2018-04-16T08:17:02Z</time>
      </trkpt>
      <trkpt lat="43.75005" lon="6.76239">
        <ele>1405</ele>
        <time>2018-04-16T08:17:15Z</time>
      </trkpt>
      <trkpt lat="43.75001" lon="6.76243">
        <ele>1407</ele>
        <time>2018-04-16T08:17:25Z</time>
      </trkpt>
      <trkpt lat="43.74998" lon="6.76248">
        <ele>1407</ele>
        <time>2018-04-16T08:17:32Z</time>
      </trkpt>
      <trkpt lat="43.74994" lon="6.76243">
        <ele>1414</ele>
        <time>2018-04-16T08:17:50Z</time>
      </trkpt>
      <trkpt lat="43.74985" lon="6.76246">
        <ele>1414</ele>
        <time>2018-04-16T08:18:03Z</time>
      </trkpt>
      <trkpt lat="43.74979" lon="6.76253">
        <ele>1415</ele>
        <time>2018-04-16T08:18:15Z</time>
      </trkpt>
      <trkpt lat="43.74973" lon="6.76253">
        <ele>1415</ele>
        <time>2018-04-16T08:18:23Z</time>
      </trkpt>
      <trkpt lat="43.74967" lon="6.76257">
        <ele>1417</ele>
        <time>2018-04-16T08:18:36Z</time>
      </trkpt>
      <trkpt lat="43.74963" lon="6.7626">
        <ele>1418</ele>
        <time>2018-04-16T08:18:43Z</time>
      </trkpt>
      <trkpt lat="43.74959" lon="6.76265">
        <ele>1417</ele>
        <time>2018-04-16T08:18:52Z</time>
      </trkpt>
      <trkpt lat="43.74956" lon="6.76269">
        <ele>1419</ele>
        <time>2018-04-16T08:18:59Z</time>
      </trkpt>
      <trkpt lat="43.74945" lon="6.76274">
        <ele>1415</ele>
        <time>2018-04-16T08:19:27Z</time>
      </trkpt>
      <trkpt lat="43.74939" lon="6.76277">
        <ele>1415</ele>
        <time>2018-04-16T08:19:38Z</time>
      </trkpt>
      <trkpt lat="43.74933" lon="6.76281">
        <ele>1415</ele>
        <time>2018-04-16T08:19:50Z</time>
      </trkpt>
      <trkpt lat="43.74931" lon="6.76288">
        <ele>1415</ele>
        <time>2018-04-16T08:19:58Z</time>
      </trkpt>
      <trkpt lat="43.74926" lon="6.76292">
        <ele>1415</ele>
        <time>2018-04-16T08:20:07Z</time>
      </trkpt>
      <trkpt lat="43.74912" lon="6.76305">
        <ele>1419</ele>
        <time>2018-04-16T08:20:31Z</time>
      </trkpt>
      <trkpt lat="43.74907" lon="6.76307">
        <ele>1420</ele>
        <time>2018-04-16T08:20:40Z</time>
      </trkpt>
      <trkpt lat="43.74902" lon="6.76308">
        <ele>1419</ele>
        <time>2018-04-16T08:20:48Z</time>
      </trkpt>
      <trkpt lat="43.74896" lon="6.7631">
        <ele>1419</ele>
        <time>2018-04-16T08:20:54Z</time>
      </trkpt>
      <trkpt lat="43.7489" lon="6.76313">
        <ele>1418</ele>
        <time>2018-04-16T08:21:05Z</time>
      </trkpt>
      <trkpt lat="43.74887" lon="6.76322">
        <ele>1420</ele>
        <time>2018-04-16T08:21:15Z</time>
      </trkpt>
      <trkpt lat="43.74883" lon="6.76329">
        <ele>1421</ele>
        <time>2018-04-16T08:21:23Z</time>
      </trkpt>
      <trkpt lat="43.74884" lon="6.76336">
        <ele>1422</ele>
        <time>2018-04-16T08:21:34Z</time>
      </trkpt>
      <trkpt lat="43.74892" lon="6.76342">
        <ele>1418</ele>
        <time>2018-04-16T08:21:49Z</time>
      </trkpt>
      <trkpt lat="43.74894" lon="6.7635">
        <ele>1419</ele>
        <time>2018-04-16T08:21:59Z</time>
      </trkpt>
      <trkpt lat="43.74899" lon="6.76362">
        <ele>1417</ele>
        <time>2018-04-16T08:22:10Z</time>
      </trkpt>
      <trkpt lat="43.74903" lon="6.76369">
        <ele>1421</ele>
        <time>2018-04-16T08:22:22Z</time>
      </trkpt>
      <trkpt lat="43.74906" lon="6.76374">
        <ele>1422</ele>
        <time>2018-04-16T08:22:27Z</time>
      </trkpt>
      <trkpt lat="43.74909" lon="6.76381">
        <ele>1422</ele>
        <time>2018-04-16T08:22:35Z</time>
      </trkpt>
      <trkpt lat="43.74914" lon="6.76391">
        <ele>1423</ele>
        <time>2018-04-16T08:22:51Z</time>
      </trkpt>
      <trkpt lat="43.74918" lon="6.76395">
        <ele>1425</ele>
        <time>2018-04-16T08:23:04Z</time>
      </trkpt>
      <trkpt lat="43.74936" lon="6.76397">
        <ele>1427</ele>
        <time>2018-04-16T08:23:27Z</time>
      </trkpt>
      <trkpt lat="43.74943" lon="6.76399">
        <ele>1431</ele>
        <time>2018-04-16T08:23:42Z</time>
      </trkpt>
      <trkpt lat="43.74947" lon="6.76401">
        <ele>1431</ele>
        <time>2018-04-16T08:23:49Z</time>
      </trkpt>
      <trkpt lat="43.7495" lon="6.76405">
        <ele>1433</ele>
        <time>2018-04-16T08:23:56Z</time>
      </trkpt>
      <trkpt lat="43.74955" lon="6.76412">
        <ele>1433</ele>
        <time>2018-04-16T08:24:12Z</time>
      </trkpt>
      <trkpt lat="43.74959" lon="6.76415">
        <ele>1433</ele>
        <time>2018-04-16T08:24:20Z</time>
      </trkpt>
      <trkpt lat="43.74967" lon="6.76416">
        <ele>1436</ele>
        <time>2018-04-16T08:24:35Z</time>
      </trkpt>
      <trkpt lat="43.7498" lon="6.76414">
        <ele>1438</ele>
        <time>2018-04-16T08:24:59Z</time>
      </trkpt>
      <trkpt lat="43.75003" lon="6.76428">
        <ele>1447</ele>
        <time>2018-04-16T08:25:40Z</time>
      </trkpt>
      <trkpt lat="43.75008" lon="6.76428">
        <ele>1447</ele>
        <time>2018-04-16T08:25:48Z</time>
      </trkpt>
      <trkpt lat="43.75012" lon="6.76424">
        <ele>1439</ele>
        <time>2018-04-16T08:27:03Z</time>
      </trkpt>
      <trkpt lat="43.75016" lon="6.76429">
        <ele>1438</ele>
        <time>2018-04-16T08:27:10Z</time>
      </trkpt>
      <trkpt lat="43.75033" lon="6.76433">
        <ele>1444</ele>
        <time>2018-04-16T08:27:43Z</time>
      </trkpt>
      <trkpt lat="43.75042" lon="6.76427">
        <ele>1447</ele>
        <time>2018-04-16T08:28:06Z</time>
      </trkpt>
      <trkpt lat="43.75056" lon="6.76431">
        <ele>1451</ele>
        <time>2018-04-16T08:28:37Z</time>
      </trkpt>
      <trkpt lat="43.75062" lon="6.76431">
        <ele>1453</ele>
        <time>2018-04-16T08:28:55Z</time>
      </trkpt>
      <trkpt lat="43.7507" lon="6.76439">
        <ele>1454</ele>
        <time>2018-04-16T08:29:19Z</time>
      </trkpt>
      <trkpt lat="43.75082" lon="6.76456">
        <ele>1457</ele>
        <time>2018-04-16T08:29:56Z</time>
      </trkpt>
      <trkpt lat="43.75092" lon="6.76458">
        <ele>1457</ele>
        <time>2018-04-16T08:30:16Z</time>
      </trkpt>
      <trkpt lat="43.7509" lon="6.76469">
        <ele>1459</ele>
        <time>2018-04-16T08:32:12Z</time>
      </trkpt>
      <trkpt lat="43.7508" lon="6.76473">
        <ele>1458</ele>
        <time>2018-04-16T08:32:38Z</time>
      </trkpt>
      <trkpt lat="43.75058" lon="6.76476">
        <ele>1470</ele>
        <time>2018-04-16T08:33:09Z</time>
      </trkpt>
      <trkpt lat="43.75049" lon="6.76479">
        <ele>1470</ele>
        <time>2018-04-16T08:33:23Z</time>
      </trkpt>
      <trkpt lat="43.7505" lon="6.76492">
        <ele>1470</ele>
        <time>2018-04-16T08:34:31Z</time>
      </trkpt>
      <trkpt lat="43.75055" lon="6.76502">
        <ele>1472</ele>
        <time>2018-04-16T08:34:45Z</time>
      </trkpt>
      <trkpt lat="43.75061" lon="6.76516">
        <ele>1475</ele>
        <time>2018-04-16T08:35:22Z</time>
      </trkpt>
      <trkpt lat="43.75076" lon="6.76523">
        <ele>1486</ele>
        <time>2018-04-16T08:36:01Z</time>
      </trkpt>
      <trkpt lat="43.75087" lon="6.76524">
        <ele>1486</ele>
        <time>2018-04-16T08:36:28Z</time>
      </trkpt>
      <trkpt lat="43.75083" lon="6.76542">
        <ele>1484</ele>
        <time>2018-04-16T08:37:15Z</time>
      </trkpt>
      <trkpt lat="43.75074" lon="6.76542">
        <ele>1484</ele>
        <time>2018-04-16T08:37:29Z</time>
      </trkpt>
      <trkpt lat="43.75065" lon="6.76545">
        <ele>1484</ele>
        <time>2018-04-16T08:37:43Z</time>
      </trkpt>
      <trkpt lat="43.75056" lon="6.76551">
        <ele>1489</ele>
        <time>2018-04-16T08:38:10Z</time>
      </trkpt>
      <trkpt lat="43.75046" lon="6.7656">
        <ele>1490</ele>
        <time>2018-04-16T08:38:32Z</time>
      </trkpt>
      <trkpt lat="43.75049" lon="6.76572">
        <ele>1487</ele>
        <time>2018-04-16T08:38:49Z</time>
      </trkpt>
      <trkpt lat="43.7504" lon="6.76576">
        <ele>1484</ele>
        <time>2018-04-16T08:39:11Z</time>
      </trkpt>
      <trkpt lat="43.75031" lon="6.76581">
        <ele>1486</ele>
        <time>2018-04-16T08:39:24Z</time>
      </trkpt>
      <trkpt lat="43.75017" lon="6.76585">
        <ele>1493</ele>
        <time>2018-04-16T08:39:47Z</time>
      </trkpt>
      <trkpt lat="43.75012" lon="6.76599">
        <ele>1500</ele>
        <time>2018-04-16T08:40:16Z</time>
      </trkpt>
      <trkpt lat="43.75018" lon="6.76611">
        <ele>1503</ele>
        <time>2018-04-16T08:41:06Z</time>
      </trkpt>
      <trkpt lat="43.75026" lon="6.76617">
        <ele>1508</ele>
        <time>2018-04-16T08:41:42Z</time>
      </trkpt>
      <trkpt lat="43.75037" lon="6.76622">
        <ele>1504</ele>
        <time>2018-04-16T08:42:18Z</time>
      </trkpt>
      <trkpt lat="43.75044" lon="6.76631">
        <ele>1513</ele>
        <time>2018-04-16T08:42:56Z</time>
      </trkpt>
      <trkpt lat="43.75052" lon="6.76638">
        <ele>1521</ele>
        <time>2018-04-16T08:43:41Z</time>
      </trkpt>
      <trkpt lat="43.7505" lon="6.76645">
        <ele>1519</ele>
        <time>2018-04-16T08:44:14Z</time>
      </trkpt>
      <trkpt lat="43.75041" lon="6.76654">
        <ele>1521</ele>
        <time>2018-04-16T08:44:43Z</time>
      </trkpt>
      <trkpt lat="43.75034" lon="6.76662">
        <ele>1520</ele>
        <time>2018-04-16T08:45:07Z</time>
      </trkpt>
      <trkpt lat="43.7503" lon="6.7667">
        <ele>1520</ele>
        <time>2018-04-16T08:45:21Z</time>
      </trkpt>
      <trkpt lat="43.75026" lon="6.76679">
        <ele>1524</ele>
        <time>2018-04-16T08:45:40Z</time>
      </trkpt>
      <trkpt lat="43.75025" lon="6.7669">
        <ele>1522</ele>
        <time>2018-04-16T08:46:12Z</time>
      </trkpt>
      <trkpt lat="43.75022" lon="6.76694">
        <ele>1522</ele>
        <time>2018-04-16T08:46:19Z</time>
      </trkpt>
      <trkpt lat="43.75011" lon="6.76692">
        <ele>1526</ele>
        <time>2018-04-16T08:46:31Z</time>
      </trkpt>
      <trkpt lat="43.75007" lon="6.76692">
        <ele>1526</ele>
        <time>2018-04-16T08:46:37Z</time>
      </trkpt>
      <trkpt lat="43.74997" lon="6.76697">
        <ele>1526</ele>
        <time>2018-04-16T08:46:54Z</time>
      </trkpt>
      <trkpt lat="43.75" lon="6.76708">
        <ele>1526</ele>
        <time>2018-04-16T08:47:08Z</time>
      </trkpt>
      <trkpt lat="43.75006" lon="6.76712">
        <ele>1525</ele>
        <time>2018-04-16T08:47:34Z</time>
      </trkpt>
      <trkpt lat="43.75019" lon="6.76726">
        <ele>1531</ele>
        <time>2018-04-16T08:48:12Z</time>
      </trkpt>
      <trkpt lat="43.75024" lon="6.76737">
        <ele>1531</ele>
        <time>2018-04-16T08:48:38Z</time>
      </trkpt>
      <trkpt lat="43.75032" lon="6.76742">
        <ele>1537</ele>
        <time>2018-04-16T08:49:21Z</time>
      </trkpt>
      <trkpt lat="43.75042" lon="6.76746">
        <ele>1540</ele>
        <time>2018-04-16T08:49:43Z</time>
      </trkpt>
      <trkpt lat="43.75056" lon="6.76744">
        <ele>1544</ele>
        <time>2018-04-16T08:50:15Z</time>
      </trkpt>
      <trkpt lat="43.75066" lon="6.76737">
        <ele>1540</ele>
        <time>2018-04-16T08:50:33Z</time>
      </trkpt>
      <trkpt lat="43.7509" lon="6.76735">
        <ele>1547</ele>
        <time>2018-04-16T08:51:15Z</time>
      </trkpt>
      <trkpt lat="43.75094" lon="6.76738">
        <ele>1548</ele>
        <time>2018-04-16T08:51:22Z</time>
      </trkpt>
      <trkpt lat="43.75094" lon="6.76747">
        <ele>1543</ele>
        <time>2018-04-16T08:51:44Z</time>
      </trkpt>
      <trkpt lat="43.75087" lon="6.76765">
        <ele>1544</ele>
        <time>2018-04-16T08:52:13Z</time>
      </trkpt>
      <trkpt lat="43.75078" lon="6.76788">
        <ele>1552</ele>
        <time>2018-04-16T08:53:02Z</time>
      </trkpt>
      <trkpt lat="43.75075" lon="6.76799">
        <ele>1557</ele>
        <time>2018-04-16T08:53:22Z</time>
      </trkpt>
      <trkpt lat="43.75073" lon="6.76805">
        <ele>1558</ele>
        <time>2018-04-16T08:53:34Z</time>
      </trkpt>
      <trkpt lat="43.75073" lon="6.76812">
        <ele>1558</ele>
        <time>2018-04-16T08:53:43Z</time>
      </trkpt>
      <trkpt lat="43.75082" lon="6.76826">
        <ele>1561</ele>
        <time>2018-04-16T08:54:15Z</time>
      </trkpt>
      <trkpt lat="43.75102" lon="6.76841">
        <ele>1568</ele>
        <time>2018-04-16T08:55:06Z</time>
      </trkpt>
      <trkpt lat="43.75105" lon="6.7685">
        <ele>1570</ele>
        <time>2018-04-16T08:55:17Z</time>
      </trkpt>
      <trkpt lat="43.75102" lon="6.76858">
        <ele>1574</ele>
        <time>2018-04-16T08:55:31Z</time>
      </trkpt>
      <trkpt lat="43.75108" lon="6.76869">
        <ele>1576</ele>
        <time>2018-04-16T08:55:53Z</time>
      </trkpt>
      <trkpt lat="43.7511" lon="6.76883">
        <ele>1577</ele>
        <time>2018-04-16T08:56:06Z</time>
      </trkpt>
      <trkpt lat="43.75117" lon="6.7689">
        <ele>1581</ele>
        <time>2018-04-16T08:56:29Z</time>
      </trkpt>
      <trkpt lat="43.75121" lon="6.76901">
        <ele>1582</ele>
        <time>2018-04-16T08:57:11Z</time>
      </trkpt>
      <trkpt lat="43.75124" lon="6.76906">
        <ele>1582</ele>
        <time>2018-04-16T08:57:18Z</time>
      </trkpt>
      <trkpt lat="43.75124" lon="6.76915">
        <ele>1582</ele>
        <time>2018-04-16T08:57:29Z</time>
      </trkpt>
      <trkpt lat="43.75124" lon="6.76922">
        <ele>1585</ele>
        <time>2018-04-16T08:57:39Z</time>
      </trkpt>
      <trkpt lat="43.75128" lon="6.76931">
        <ele>1586</ele>
        <time>2018-04-16T08:57:51Z</time>
      </trkpt>
      <trkpt lat="43.7513" lon="6.76941">
        <ele>1588</ele>
        <time>2018-04-16T08:58:06Z</time>
      </trkpt>
      <trkpt lat="43.75131" lon="6.76949">
        <ele>1588</ele>
        <time>2018-04-16T08:58:13Z</time>
      </trkpt>
      <trkpt lat="43.75135" lon="6.7696">
        <ele>1591</ele>
        <time>2018-04-16T08:58:28Z</time>
      </trkpt>
      <trkpt lat="43.75136" lon="6.76967">
        <ele>1591</ele>
        <time>2018-04-16T08:58:35Z</time>
      </trkpt>
      <trkpt lat="43.75135" lon="6.76973">
        <ele>1593</ele>
        <time>2018-04-16T08:58:42Z</time>
      </trkpt>
      <trkpt lat="43.75137" lon="6.76979">
        <ele>1593</ele>
        <time>2018-04-16T08:58:49Z</time>
      </trkpt>
      <trkpt lat="43.7514" lon="6.76986">
        <ele>1593</ele>
        <time>2018-04-16T08:58:55Z</time>
      </trkpt>
      <trkpt lat="43.7514" lon="6.76995">
        <ele>1593</ele>
        <time>2018-04-16T08:59:04Z</time>
      </trkpt>
      <trkpt lat="43.75144" lon="6.77007">
        <ele>1593</ele>
        <time>2018-04-16T08:59:18Z</time>
      </trkpt>
      <trkpt lat="43.75145" lon="6.77014">
        <ele>1593</ele>
        <time>2018-04-16T08:59:24Z</time>
      </trkpt>
      <trkpt lat="43.75146" lon="6.77027">
        <ele>1593</ele>
        <time>2018-04-16T08:59:36Z</time>
      </trkpt>
      <trkpt lat="43.75147" lon="6.77033">
        <ele>1595</ele>
        <time>2018-04-16T08:59:43Z</time>
      </trkpt>
      <trkpt lat="43.75152" lon="6.77044">
        <ele>1600</ele>
        <time>2018-04-16T08:59:58Z</time>
      </trkpt>
      <trkpt lat="43.75157" lon="6.77055">
        <ele>1599</ele>
        <time>2018-04-16T09:00:12Z</time>
      </trkpt>
      <trkpt lat="43.75158" lon="6.77061">
        <ele>1600</ele>
        <time>2018-04-16T09:00:18Z</time>
      </trkpt>
      <trkpt lat="43.75161" lon="6.77067">
        <ele>1599</ele>
        <time>2018-04-16T09:00:23Z</time>
      </trkpt>
      <trkpt lat="43.75163" lon="6.77073">
        <ele>1597</ele>
        <time>2018-04-16T09:00:31Z</time>
      </trkpt>
      <trkpt lat="43.75163" lon="6.7708">
        <ele>1598</ele>
        <time>2018-04-16T09:00:40Z</time>
      </trkpt>
      <trkpt lat="43.75164" lon="6.77086">
        <ele>1598</ele>
        <time>2018-04-16T09:00:46Z</time>
      </trkpt>
      <trkpt lat="43.7516" lon="6.77089">
        <ele>1596</ele>
        <time>2018-04-16T09:01:34Z</time>
      </trkpt>
      <trkpt lat="43.75158" lon="6.7709">
        <ele>1599</ele>
        <time>2018-04-16T09:15:58Z</time>
      </trkpt>
      <trkpt lat="43.7516" lon="6.77092">
        <ele>1599</ele>
        <time>2018-04-16T09:18:10Z</time>
      </trkpt>
      <trkpt lat="43.75161" lon="6.77098">
        <ele>1599</ele>
        <time>2018-04-16T09:19:00Z</time>
      </trkpt>
      <trkpt lat="43.75168" lon="6.77104">
        <ele>1601</ele>
        <time>2018-04-16T09:20:21Z</time>
      </trkpt>
      <trkpt lat="43.75168" lon="6.77113">
        <ele>1601</ele>
        <time>2018-04-16T09:20:35Z</time>
      </trkpt>
      <trkpt lat="43.75169" lon="6.77119">
        <ele>1600</ele>
        <time>2018-04-16T09:20:42Z</time>
      </trkpt>
      <trkpt lat="43.75167" lon="6.77133">
        <ele>1601</ele>
        <time>2018-04-16T09:21:01Z</time>
      </trkpt>
      <trkpt lat="43.75167" lon="6.7714">
        <ele>1602</ele>
        <time>2018-04-16T09:21:09Z</time>
      </trkpt>
      <trkpt lat="43.7517" lon="6.77152">
        <ele>1602</ele>
        <time>2018-04-16T09:21:27Z</time>
      </trkpt>
      <trkpt lat="43.75173" lon="6.77158">
        <ele>1601</ele>
        <time>2018-04-16T09:21:34Z</time>
      </trkpt>
      <trkpt lat="43.75173" lon="6.77165">
        <ele>1600</ele>
        <time>2018-04-16T09:21:48Z</time>
      </trkpt>
      <trkpt lat="43.75173" lon="6.77171">
        <ele>1603</ele>
        <time>2018-04-16T09:22:00Z</time>
      </trkpt>
      <trkpt lat="43.75173" lon="6.77178">
        <ele>1603</ele>
        <time>2018-04-16T09:22:06Z</time>
      </trkpt>
      <trkpt lat="43.75168" lon="6.77195">
        <ele>1601</ele>
        <time>2018-04-16T09:22:33Z</time>
      </trkpt>
      <trkpt lat="43.75164" lon="6.77201">
        <ele>1602</ele>
        <time>2018-04-16T09:22:39Z</time>
      </trkpt>
      <trkpt lat="43.75161" lon="6.77206">
        <ele>1602</ele>
        <time>2018-04-16T09:22:46Z</time>
      </trkpt>
      <trkpt lat="43.75159" lon="6.77212">
        <ele>1603</ele>
        <time>2018-04-16T09:22:52Z</time>
      </trkpt>
      <trkpt lat="43.75159" lon="6.77219">
        <ele>1603</ele>
        <time>2018-04-16T09:23:01Z</time>
      </trkpt>
      <trkpt lat="43.75153" lon="6.7723">
        <ele>1602</ele>
        <time>2018-04-16T09:23:17Z</time>
      </trkpt>
      <trkpt lat="43.75152" lon="6.77238">
        <ele>1600</ele>
        <time>2018-04-16T09:23:34Z</time>
      </trkpt>
      <trkpt lat="43.7515" lon="6.77244">
        <ele>1599</ele>
        <time>2018-04-16T09:23:40Z</time>
      </trkpt>
      <trkpt lat="43.75148" lon="6.7725">
        <ele>1599</ele>
        <time>2018-04-16T09:23:49Z</time>
      </trkpt>
      <trkpt lat="43.7515" lon="6.77264">
        <ele>1601</ele>
        <time>2018-04-16T09:24:02Z</time>
      </trkpt>
      <trkpt lat="43.75152" lon="6.7727">
        <ele>1600</ele>
        <time>2018-04-16T09:24:10Z</time>
      </trkpt>
      <trkpt lat="43.75152" lon="6.77277">
        <ele>1600</ele>
        <time>2018-04-16T09:24:19Z</time>
      </trkpt>
      <trkpt lat="43.75153" lon="6.77291">
        <ele>1598</ele>
        <time>2018-04-16T09:24:37Z</time>
      </trkpt>
      <trkpt lat="43.75155" lon="6.77311">
        <ele>1601</ele>
        <time>2018-04-16T09:25:00Z</time>
      </trkpt>
      <trkpt lat="43.75157" lon="6.77323">
        <ele>1599</ele>
        <time>2018-04-16T09:25:14Z</time>
      </trkpt>
      <trkpt lat="43.75155" lon="6.77333">
        <ele>1598</ele>
        <time>2018-04-16T09:25:31Z</time>
      </trkpt>
      <trkpt lat="43.75154" lon="6.7734">
        <ele>1600</ele>
        <time>2018-04-16T09:25:39Z</time>
      </trkpt>
      <trkpt lat="43.75155" lon="6.77353">
        <ele>1599</ele>
        <time>2018-04-16T09:25:54Z</time>
      </trkpt>
      <trkpt lat="43.75155" lon="6.7736">
        <ele>1599</ele>
        <time>2018-04-16T09:26:00Z</time>
      </trkpt>
      <trkpt lat="43.75152" lon="6.77376">
        <ele>1603</ele>
        <time>2018-04-16T09:26:29Z</time>
      </trkpt>
      <trkpt lat="43.75151" lon="6.77384">
        <ele>1604</ele>
        <time>2018-04-16T09:26:37Z</time>
      </trkpt>
      <trkpt lat="43.7515" lon="6.77397">
        <ele>1602</ele>
        <time>2018-04-16T09:26:50Z</time>
      </trkpt>
      <trkpt lat="43.75151" lon="6.77403">
        <ele>1601</ele>
        <time>2018-04-16T09:26:57Z</time>
      </trkpt>
      <trkpt lat="43.75152" lon="6.77416">
        <ele>1598</ele>
        <time>2018-04-16T09:27:24Z</time>
      </trkpt>
      <trkpt lat="43.7515" lon="6.77422">
        <ele>1598</ele>
        <time>2018-04-16T09:27:31Z</time>
      </trkpt>
      <trkpt lat="43.7515" lon="6.77429">
        <ele>1598</ele>
        <time>2018-04-16T09:27:39Z</time>
      </trkpt>
      <trkpt lat="43.75149" lon="6.77436">
        <ele>1597</ele>
        <time>2018-04-16T09:27:45Z</time>
      </trkpt>
      <trkpt lat="43.75149" lon="6.77443">
        <ele>1597</ele>
        <time>2018-04-16T09:27:52Z</time>
      </trkpt>
      <trkpt lat="43.75149" lon="6.77449">
        <ele>1595</ele>
        <time>2018-04-16T09:28:00Z</time>
      </trkpt>
      <trkpt lat="43.7515" lon="6.77455">
        <ele>1601</ele>
        <time>2018-04-16T09:28:13Z</time>
      </trkpt>
      <trkpt lat="43.75153" lon="6.77468">
        <ele>1597</ele>
        <time>2018-04-16T09:28:25Z</time>
      </trkpt>
      <trkpt lat="43.75157" lon="6.77476">
        <ele>1600</ele>
        <time>2018-04-16T09:28:54Z</time>
      </trkpt>
      <trkpt lat="43.75161" lon="6.77488">
        <ele>1597</ele>
        <time>2018-04-16T09:29:28Z</time>
      </trkpt>
      <trkpt lat="43.75164" lon="6.77494">
        <ele>1595</ele>
        <time>2018-04-16T09:29:33Z</time>
      </trkpt>
      <trkpt lat="43.75165" lon="6.77501">
        <ele>1595</ele>
        <time>2018-04-16T09:29:38Z</time>
      </trkpt>
      <trkpt lat="43.75169" lon="6.77518">
        <ele>1588</ele>
        <time>2018-04-16T09:30:06Z</time>
      </trkpt>
      <trkpt lat="43.75172" lon="6.77522">
        <ele>1588</ele>
        <time>2018-04-16T09:30:10Z</time>
      </trkpt>
      <trkpt lat="43.75177" lon="6.77524">
        <ele>1589</ele>
        <time>2018-04-16T09:30:16Z</time>
      </trkpt>
      <trkpt lat="43.75183" lon="6.77529">
        <ele>1587</ele>
        <time>2018-04-16T09:30:42Z</time>
      </trkpt>
      <trkpt lat="43.75187" lon="6.77535">
        <ele>1588</ele>
        <time>2018-04-16T09:30:47Z</time>
      </trkpt>
      <trkpt lat="43.75191" lon="6.77539">
        <ele>1586</ele>
        <time>2018-04-16T09:31:02Z</time>
      </trkpt>
      <trkpt lat="43.75196" lon="6.77547">
        <ele>1587</ele>
        <time>2018-04-16T09:31:17Z</time>
      </trkpt>
      <trkpt lat="43.75208" lon="6.77558">
        <ele>1584</ele>
        <time>2018-04-16T09:31:34Z</time>
      </trkpt>
      <trkpt lat="43.75211" lon="6.77563">
        <ele>1584</ele>
        <time>2018-04-16T09:31:41Z</time>
      </trkpt>
      <trkpt lat="43.75221" lon="6.77578">
        <ele>1581</ele>
        <time>2018-04-16T09:32:00Z</time>
      </trkpt>
      <trkpt lat="43.75225" lon="6.77585">
        <ele>1583</ele>
        <time>2018-04-16T09:32:11Z</time>
      </trkpt>
      <trkpt lat="43.75229" lon="6.77588">
        <ele>1583</ele>
        <time>2018-04-16T09:32:16Z</time>
      </trkpt>
      <trkpt lat="43.75237" lon="6.77603">
        <ele>1580</ele>
        <time>2018-04-16T09:32:38Z</time>
      </trkpt>
      <trkpt lat="43.75246" lon="6.7761">
        <ele>1578</ele>
        <time>2018-04-16T09:32:50Z</time>
      </trkpt>
      <trkpt lat="43.75248" lon="6.77616">
        <ele>1579</ele>
        <time>2018-04-16T09:32:57Z</time>
      </trkpt>
      <trkpt lat="43.75249" lon="6.77623">
        <ele>1580</ele>
        <time>2018-04-16T09:33:04Z</time>
      </trkpt>
      <trkpt lat="43.75249" lon="6.7763">
        <ele>1579</ele>
        <time>2018-04-16T09:33:12Z</time>
      </trkpt>
      <trkpt lat="43.75249" lon="6.7764">
        <ele>1577</ele>
        <time>2018-04-16T09:33:26Z</time>
      </trkpt>
      <trkpt lat="43.7525" lon="6.77647">
        <ele>1576</ele>
        <time>2018-04-16T09:33:33Z</time>
      </trkpt>
      <trkpt lat="43.75254" lon="6.77654">
        <ele>1576</ele>
        <time>2018-04-16T09:33:41Z</time>
      </trkpt>
      <trkpt lat="43.75254" lon="6.77661">
        <ele>1576</ele>
        <time>2018-04-16T09:33:49Z</time>
      </trkpt>
      <trkpt lat="43.75253" lon="6.77675">
        <ele>1573</ele>
        <time>2018-04-16T09:34:01Z</time>
      </trkpt>
      <trkpt lat="43.75253" lon="6.77681">
        <ele>1573</ele>
        <time>2018-04-16T09:34:08Z</time>
      </trkpt>
      <trkpt lat="43.75251" lon="6.77687">
        <ele>1572</ele>
        <time>2018-04-16T09:34:14Z</time>
      </trkpt>
      <trkpt lat="43.75248" lon="6.77693">
        <ele>1573</ele>
        <time>2018-04-16T09:34:20Z</time>
      </trkpt>
      <trkpt lat="43.75245" lon="6.77699">
        <ele>1573</ele>
        <time>2018-04-16T09:34:27Z</time>
      </trkpt>
      <trkpt lat="43.75243" lon="6.77704">
        <ele>1573</ele>
        <time>2018-04-16T09:34:34Z</time>
      </trkpt>
      <trkpt lat="43.7524" lon="6.7771">
        <ele>1572</ele>
        <time>2018-04-16T09:34:40Z</time>
      </trkpt>
      <trkpt lat="43.75234" lon="6.77718">
        <ele>1573</ele>
        <time>2018-04-16T09:35:42Z</time>
      </trkpt>
      <trkpt lat="43.75231" lon="6.77724">
        <ele>1573</ele>
        <time>2018-04-16T09:35:47Z</time>
      </trkpt>
      <trkpt lat="43.75227" lon="6.77729">
        <ele>1573</ele>
        <time>2018-04-16T09:35:52Z</time>
      </trkpt>
      <trkpt lat="43.75221" lon="6.77739">
        <ele>1572</ele>
        <time>2018-04-16T09:36:07Z</time>
      </trkpt>
      <trkpt lat="43.75217" lon="6.77744">
        <ele>1572</ele>
        <time>2018-04-16T09:36:12Z</time>
      </trkpt>
      <trkpt lat="43.75214" lon="6.7775">
        <ele>1572</ele>
        <time>2018-04-16T09:36:21Z</time>
      </trkpt>
      <trkpt lat="43.7521" lon="6.77754">
        <ele>1571</ele>
        <time>2018-04-16T09:36:30Z</time>
      </trkpt>
      <trkpt lat="43.75195" lon="6.77768">
        <ele>1576</ele>
        <time>2018-04-16T09:37:03Z</time>
      </trkpt>
      <trkpt lat="43.75186" lon="6.77775">
        <ele>1573</ele>
        <time>2018-04-16T09:37:17Z</time>
      </trkpt>
      <trkpt lat="43.75184" lon="6.77781">
        <ele>1575</ele>
        <time>2018-04-16T09:37:26Z</time>
      </trkpt>
      <trkpt lat="43.75181" lon="6.77786">
        <ele>1576</ele>
        <time>2018-04-16T09:37:35Z</time>
      </trkpt>
      <trkpt lat="43.75176" lon="6.77787">
        <ele>1576</ele>
        <time>2018-04-16T09:37:42Z</time>
      </trkpt>
      <trkpt lat="43.75173" lon="6.77792">
        <ele>1576</ele>
        <time>2018-04-16T09:37:51Z</time>
      </trkpt>
      <trkpt lat="43.75169" lon="6.77806">
        <ele>1577</ele>
        <time>2018-04-16T09:38:12Z</time>
      </trkpt>
      <trkpt lat="43.75165" lon="6.77813">
        <ele>1577</ele>
        <time>2018-04-16T09:38:28Z</time>
      </trkpt>
      <trkpt lat="43.75156" lon="6.7783">
        <ele>1581</ele>
        <time>2018-04-16T09:39:08Z</time>
      </trkpt>
      <trkpt lat="43.75154" lon="6.77838">
        <ele>1583</ele>
        <time>2018-04-16T09:39:20Z</time>
      </trkpt>
      <trkpt lat="43.75141" lon="6.77857">
        <ele>1589</ele>
        <time>2018-04-16T09:39:53Z</time>
      </trkpt>
      <trkpt lat="43.75134" lon="6.77863">
        <ele>1591</ele>
        <time>2018-04-16T09:40:18Z</time>
      </trkpt>
      <trkpt lat="43.75131" lon="6.77869">
        <ele>1589</ele>
        <time>2018-04-16T09:40:32Z</time>
      </trkpt>
      <trkpt lat="43.75127" lon="6.77871">
        <ele>1590</ele>
        <time>2018-04-16T09:40:41Z</time>
      </trkpt>
      <trkpt lat="43.75123" lon="6.77876">
        <ele>1591</ele>
        <time>2018-04-16T09:40:49Z</time>
      </trkpt>
      <trkpt lat="43.75119" lon="6.77879">
        <ele>1591</ele>
        <time>2018-04-16T09:40:54Z</time>
      </trkpt>
      <trkpt lat="43.75115" lon="6.77882">
        <ele>1591</ele>
        <time>2018-04-16T09:40:59Z</time>
      </trkpt>
      <trkpt lat="43.75106" lon="6.77885">
        <ele>1590</ele>
        <time>2018-04-16T09:41:17Z</time>
      </trkpt>
      <trkpt lat="43.75101" lon="6.77888">
        <ele>1591</ele>
        <time>2018-04-16T09:41:26Z</time>
      </trkpt>
      <trkpt lat="43.75096" lon="6.77889">
        <ele>1592</ele>
        <time>2018-04-16T09:41:35Z</time>
      </trkpt>
      <trkpt lat="43.75091" lon="6.77892">
        <ele>1593</ele>
        <time>2018-04-16T09:41:44Z</time>
      </trkpt>
      <trkpt lat="43.75086" lon="6.77894">
        <ele>1593</ele>
        <time>2018-04-16T09:41:52Z</time>
      </trkpt>
      <trkpt lat="43.75082" lon="6.77896">
        <ele>1592</ele>
        <time>2018-04-16T09:42:00Z</time>
      </trkpt>
      <trkpt lat="43.75066" lon="6.77903">
        <ele>1597</ele>
        <time>2018-04-16T09:42:31Z</time>
      </trkpt>
      <trkpt lat="43.75061" lon="6.77906">
        <ele>1598</ele>
        <time>2018-04-16T09:42:52Z</time>
      </trkpt>
      <trkpt lat="43.75056" lon="6.77911">
        <ele>1601</ele>
        <time>2018-04-16T09:43:24Z</time>
      </trkpt>
      <trkpt lat="43.75044" lon="6.77919">
        <ele>1604</ele>
        <time>2018-04-16T09:43:48Z</time>
      </trkpt>
      <trkpt lat="43.75037" lon="6.77925">
        <ele>1601</ele>
        <time>2018-04-16T09:44:02Z</time>
      </trkpt>
      <trkpt lat="43.75033" lon="6.7793">
        <ele>1600</ele>
        <time>2018-04-16T09:44:10Z</time>
      </trkpt>
      <trkpt lat="43.75013" lon="6.7794">
        <ele>1609</ele>
        <time>2018-04-16T09:44:45Z</time>
      </trkpt>
      <trkpt lat="43.75004" lon="6.77946">
        <ele>1611</ele>
        <time>2018-04-16T09:44:59Z</time>
      </trkpt>
      <trkpt lat="43.74996" lon="6.77954">
        <ele>1609</ele>
        <time>2018-04-16T09:45:15Z</time>
      </trkpt>
      <trkpt lat="43.74991" lon="6.77958">
        <ele>1612</ele>
        <time>2018-04-16T09:45:30Z</time>
      </trkpt>
      <trkpt lat="43.74976" lon="6.77972">
        <ele>1616</ele>
        <time>2018-04-16T09:46:03Z</time>
      </trkpt>
      <trkpt lat="43.74973" lon="6.77977">
        <ele>1615</ele>
        <time>2018-04-16T09:46:11Z</time>
      </trkpt>
      <trkpt lat="43.74966" lon="6.77982">
        <ele>1616</ele>
        <time>2018-04-16T09:46:23Z</time>
      </trkpt>
      <trkpt lat="43.74963" lon="6.77987">
        <ele>1617</ele>
        <time>2018-04-16T09:46:29Z</time>
      </trkpt>
      <trkpt lat="43.7496" lon="6.77991">
        <ele>1617</ele>
        <time>2018-04-16T09:46:37Z</time>
      </trkpt>
      <trkpt lat="43.74956" lon="6.77995">
        <ele>1617</ele>
        <time>2018-04-16T09:46:45Z</time>
      </trkpt>
      <trkpt lat="43.74948" lon="6.78003">
        <ele>1618</ele>
        <time>2018-04-16T09:47:02Z</time>
      </trkpt>
      <trkpt lat="43.74944" lon="6.78006">
        <ele>1619</ele>
        <time>2018-04-16T09:47:09Z</time>
      </trkpt>
      <trkpt lat="43.7494" lon="6.78011">
        <ele>1621</ele>
        <time>2018-04-16T09:47:22Z</time>
      </trkpt>
      <trkpt lat="43.74935" lon="6.78019">
        <ele>1620</ele>
        <time>2018-04-16T09:47:36Z</time>
      </trkpt>
      <trkpt lat="43.74931" lon="6.78022">
        <ele>1622</ele>
        <time>2018-04-16T09:47:43Z</time>
      </trkpt>
      <trkpt lat="43.74929" lon="6.7803">
        <ele>1623</ele>
        <time>2018-04-16T09:48:00Z</time>
      </trkpt>
      <trkpt lat="43.74925" lon="6.78035">
        <ele>1623</ele>
        <time>2018-04-16T09:48:11Z</time>
      </trkpt>
      <trkpt lat="43.74923" lon="6.78041">
        <ele>1624</ele>
        <time>2018-04-16T09:48:18Z</time>
      </trkpt>
      <trkpt lat="43.74919" lon="6.78049">
        <ele>1626</ele>
        <time>2018-04-16T09:48:31Z</time>
      </trkpt>
      <trkpt lat="43.74917" lon="6.78055">
        <ele>1628</ele>
        <time>2018-04-16T09:48:41Z</time>
      </trkpt>
      <trkpt lat="43.74915" lon="6.78061">
        <ele>1628</ele>
        <time>2018-04-16T09:48:51Z</time>
      </trkpt>
      <trkpt lat="43.74908" lon="6.78078">
        <ele>1630</ele>
        <time>2018-04-16T09:49:23Z</time>
      </trkpt>
      <trkpt lat="43.74907" lon="6.78092">
        <ele>1630</ele>
        <time>2018-04-16T09:49:40Z</time>
      </trkpt>
      <trkpt lat="43.74905" lon="6.78098">
        <ele>1631</ele>
        <time>2018-04-16T09:49:47Z</time>
      </trkpt>
      <trkpt lat="43.74889" lon="6.78123">
        <ele>1637</ele>
        <time>2018-04-16T09:50:21Z</time>
      </trkpt>
      <trkpt lat="43.74886" lon="6.78133">
        <ele>1637</ele>
        <time>2018-04-16T09:50:40Z</time>
      </trkpt>
      <trkpt lat="43.74881" lon="6.78148">
        <ele>1637</ele>
        <time>2018-04-16T09:51:05Z</time>
      </trkpt>
      <trkpt lat="43.74877" lon="6.78152">
        <ele>1635</ele>
        <time>2018-04-16T09:51:21Z</time>
      </trkpt>
      <trkpt lat="43.74873" lon="6.78161">
        <ele>1638</ele>
        <time>2018-04-16T09:52:07Z</time>
      </trkpt>
      <trkpt lat="43.7487" lon="6.78179">
        <ele>1639</ele>
        <time>2018-04-16T09:52:23Z</time>
      </trkpt>
      <trkpt lat="43.74865" lon="6.7818">
        <ele>1641</ele>
        <time>2018-04-16T09:52:41Z</time>
      </trkpt>
      <trkpt lat="43.74863" lon="6.78183">
        <ele>1645</ele>
        <time>2018-04-16T09:53:12Z</time>
      </trkpt>
      <trkpt lat="43.74862" lon="6.78176">
        <ele>1645</ele>
        <time>2018-04-16T09:53:18Z</time>
      </trkpt>
      <trkpt lat="43.74865" lon="6.78182">
        <ele>1641</ele>
        <time>2018-04-16T10:55:54Z</time>
      </trkpt>
      <trkpt lat="43.74866" lon="6.78182">
        <ele>1641</ele>
        <time>2018-04-16T11:02:17Z</time>
      </trkpt>
      <trkpt lat="43.74874" lon="6.78183">
        <ele>1640</ele>
        <time>2018-04-16T11:03:38Z</time>
      </trkpt>
      <trkpt lat="43.74885" lon="6.78168">
        <ele>1637</ele>
        <time>2018-04-16T11:03:56Z</time>
      </trkpt>
      <trkpt lat="43.74898" lon="6.78159">
        <ele>1631</ele>
        <time>2018-04-16T11:04:14Z</time>
      </trkpt>
      <trkpt lat="43.74901" lon="6.78154">
        <ele>1632</ele>
        <time>2018-04-16T11:04:19Z</time>
      </trkpt>
      <trkpt lat="43.74905" lon="6.78149">
        <ele>1631</ele>
        <time>2018-04-16T11:04:24Z</time>
      </trkpt>
      <trkpt lat="43.74908" lon="6.78144">
        <ele>1632</ele>
        <time>2018-04-16T11:04:30Z</time>
      </trkpt>
      <trkpt lat="43.74912" lon="6.78139">
        <ele>1631</ele>
        <time>2018-04-16T11:04:36Z</time>
      </trkpt>
      <trkpt lat="43.74922" lon="6.78117">
        <ele>1626</ele>
        <time>2018-04-16T11:04:55Z</time>
      </trkpt>
      <trkpt lat="43.74925" lon="6.78111">
        <ele>1626</ele>
        <time>2018-04-16T11:05:01Z</time>
      </trkpt>
      <trkpt lat="43.74928" lon="6.78106">
        <ele>1626</ele>
        <time>2018-04-16T11:05:06Z</time>
      </trkpt>
      <trkpt lat="43.7493" lon="6.781">
        <ele>1626</ele>
        <time>2018-04-16T11:05:40Z</time>
      </trkpt>
      <trkpt lat="43.74933" lon="6.78094">
        <ele>1626</ele>
        <time>2018-04-16T11:05:44Z</time>
      </trkpt>
      <trkpt lat="43.74934" lon="6.78087">
        <ele>1627</ele>
        <time>2018-04-16T11:05:52Z</time>
      </trkpt>
      <trkpt lat="43.74938" lon="6.78081">
        <ele>1627</ele>
        <time>2018-04-16T11:05:57Z</time>
      </trkpt>
      <trkpt lat="43.74943" lon="6.78077">
        <ele>1625</ele>
        <time>2018-04-16T11:06:01Z</time>
      </trkpt>
      <trkpt lat="43.74946" lon="6.78071">
        <ele>1625</ele>
        <time>2018-04-16T11:06:07Z</time>
      </trkpt>
      <trkpt lat="43.74971" lon="6.78044">
        <ele>1614</ele>
        <time>2018-04-16T11:06:38Z</time>
      </trkpt>
      <trkpt lat="43.74987" lon="6.78028">
        <ele>1610</ele>
        <time>2018-04-16T11:06:58Z</time>
      </trkpt>
      <trkpt lat="43.74991" lon="6.78024">
        <ele>1610</ele>
        <time>2018-04-16T11:07:04Z</time>
      </trkpt>
      <trkpt lat="43.74999" lon="6.78016">
        <ele>1607</ele>
        <time>2018-04-16T11:07:14Z</time>
      </trkpt>
      <trkpt lat="43.75003" lon="6.78011">
        <ele>1607</ele>
        <time>2018-04-16T11:07:18Z</time>
      </trkpt>
      <trkpt lat="43.75022" lon="6.77988">
        <ele>1601</ele>
        <time>2018-04-16T11:07:43Z</time>
      </trkpt>
      <trkpt lat="43.75028" lon="6.77983">
        <ele>1600</ele>
        <time>2018-04-16T11:07:50Z</time>
      </trkpt>
      <trkpt lat="43.75032" lon="6.77978">
        <ele>1600</ele>
        <time>2018-04-16T11:07:55Z</time>
      </trkpt>
      <trkpt lat="43.75036" lon="6.77973">
        <ele>1598</ele>
        <time>2018-04-16T11:08:00Z</time>
      </trkpt>
      <trkpt lat="43.75039" lon="6.77967">
        <ele>1598</ele>
        <time>2018-04-16T11:08:05Z</time>
      </trkpt>
      <trkpt lat="43.75045" lon="6.77957">
        <ele>1596</ele>
        <time>2018-04-16T11:08:16Z</time>
      </trkpt>
      <trkpt lat="43.75049" lon="6.77952">
        <ele>1595</ele>
        <time>2018-04-16T11:08:21Z</time>
      </trkpt>
      <trkpt lat="43.75053" lon="6.77947">
        <ele>1596</ele>
        <time>2018-04-16T11:08:25Z</time>
      </trkpt>
      <trkpt lat="43.75059" lon="6.77937">
        <ele>1594</ele>
        <time>2018-04-16T11:08:36Z</time>
      </trkpt>
      <trkpt lat="43.75063" lon="6.77932">
        <ele>1594</ele>
        <time>2018-04-16T11:08:42Z</time>
      </trkpt>
      <trkpt lat="43.75071" lon="6.77922">
        <ele>1596</ele>
        <time>2018-04-16T11:08:51Z</time>
      </trkpt>
      <trkpt lat="43.75079" lon="6.77914">
        <ele>1593</ele>
        <time>2018-04-16T11:09:00Z</time>
      </trkpt>
      <trkpt lat="43.75082" lon="6.7791">
        <ele>1596</ele>
        <time>2018-04-16T11:09:22Z</time>
      </trkpt>
      <trkpt lat="43.75085" lon="6.77905">
        <ele>1596</ele>
        <time>2018-04-16T11:09:27Z</time>
      </trkpt>
      <trkpt lat="43.75089" lon="6.77901">
        <ele>1594</ele>
        <time>2018-04-16T11:09:31Z</time>
      </trkpt>
      <trkpt lat="43.75093" lon="6.77897">
        <ele>1594</ele>
        <time>2018-04-16T11:09:35Z</time>
      </trkpt>
      <trkpt lat="43.75098" lon="6.77893">
        <ele>1593</ele>
        <time>2018-04-16T11:09:40Z</time>
      </trkpt>
      <trkpt lat="43.75102" lon="6.7789">
        <ele>1593</ele>
        <time>2018-04-16T11:09:44Z</time>
      </trkpt>
      <trkpt lat="43.75111" lon="6.77884">
        <ele>1591</ele>
        <time>2018-04-16T11:09:52Z</time>
      </trkpt>
      <trkpt lat="43.75116" lon="6.77881">
        <ele>1591</ele>
        <time>2018-04-16T11:09:57Z</time>
      </trkpt>
      <trkpt lat="43.75125" lon="6.7787">
        <ele>1590</ele>
        <time>2018-04-16T11:10:13Z</time>
      </trkpt>
      <trkpt lat="43.75128" lon="6.77865">
        <ele>1588</ele>
        <time>2018-04-16T11:10:17Z</time>
      </trkpt>
      <trkpt lat="43.75131" lon="6.7786">
        <ele>1588</ele>
        <time>2018-04-16T11:10:21Z</time>
      </trkpt>
      <trkpt lat="43.75134" lon="6.77855">
        <ele>1588</ele>
        <time>2018-04-16T11:10:26Z</time>
      </trkpt>
      <trkpt lat="43.75138" lon="6.7785">
        <ele>1587</ele>
        <time>2018-04-16T11:10:31Z</time>
      </trkpt>
      <trkpt lat="43.75148" lon="6.77835">
        <ele>1582</ele>
        <time>2018-04-16T11:10:45Z</time>
      </trkpt>
      <trkpt lat="43.75152" lon="6.77831">
        <ele>1582</ele>
        <time>2018-04-16T11:10:50Z</time>
      </trkpt>
      <trkpt lat="43.75156" lon="6.77825">
        <ele>1581</ele>
        <time>2018-04-16T11:10:55Z</time>
      </trkpt>
      <trkpt lat="43.75158" lon="6.77819">
        <ele>1581</ele>
        <time>2018-04-16T11:10:59Z</time>
      </trkpt>
      <trkpt lat="43.75161" lon="6.77813">
        <ele>1580</ele>
        <time>2018-04-16T11:11:04Z</time>
      </trkpt>
      <trkpt lat="43.75179" lon="6.7779">
        <ele>1575</ele>
        <time>2018-04-16T11:11:28Z</time>
      </trkpt>
      <trkpt lat="43.75185" lon="6.7778">
        <ele>1576</ele>
        <time>2018-04-16T11:11:37Z</time>
      </trkpt>
      <trkpt lat="43.75204" lon="6.77758">
        <ele>1569</ele>
        <time>2018-04-16T11:12:01Z</time>
      </trkpt>
      <trkpt lat="43.75207" lon="6.77753">
        <ele>1570</ele>
        <time>2018-04-16T11:12:05Z</time>
      </trkpt>
      <trkpt lat="43.75211" lon="6.7775">
        <ele>1569</ele>
        <time>2018-04-16T11:12:10Z</time>
      </trkpt>
      <trkpt lat="43.75215" lon="6.77744">
        <ele>1569</ele>
        <time>2018-04-16T11:12:16Z</time>
      </trkpt>
      <trkpt lat="43.75222" lon="6.77734">
        <ele>1566</ele>
        <time>2018-04-16T11:12:30Z</time>
      </trkpt>
      <trkpt lat="43.75226" lon="6.77731">
        <ele>1566</ele>
        <time>2018-04-16T11:12:35Z</time>
      </trkpt>
      <trkpt lat="43.7523" lon="6.77728">
        <ele>1566</ele>
        <time>2018-04-16T11:12:40Z</time>
      </trkpt>
      <trkpt lat="43.75233" lon="6.77722">
        <ele>1567</ele>
        <time>2018-04-16T11:12:47Z</time>
      </trkpt>
      <trkpt lat="43.75238" lon="6.77719">
        <ele>1567</ele>
        <time>2018-04-16T11:12:54Z</time>
      </trkpt>
      <trkpt lat="43.75244" lon="6.7771">
        <ele>1570</ele>
        <time>2018-04-16T11:14:19Z</time>
      </trkpt>
      <trkpt lat="43.75247" lon="6.77705">
        <ele>1569</ele>
        <time>2018-04-16T11:14:25Z</time>
      </trkpt>
      <trkpt lat="43.75249" lon="6.77699">
        <ele>1568</ele>
        <time>2018-04-16T11:14:34Z</time>
      </trkpt>
      <trkpt lat="43.75251" lon="6.77691">
        <ele>1569</ele>
        <time>2018-04-16T11:14:41Z</time>
      </trkpt>
      <trkpt lat="43.75253" lon="6.77686">
        <ele>1570</ele>
        <time>2018-04-16T11:14:47Z</time>
      </trkpt>
      <trkpt lat="43.75258" lon="6.77678">
        <ele>1571</ele>
        <time>2018-04-16T11:15:03Z</time>
      </trkpt>
      <trkpt lat="43.75262" lon="6.77675">
        <ele>1571</ele>
        <time>2018-04-16T11:15:09Z</time>
      </trkpt>
      <trkpt lat="43.75269" lon="6.77665">
        <ele>1568</ele>
        <time>2018-04-16T11:15:34Z</time>
      </trkpt>
      <trkpt lat="43.75273" lon="6.77664">
        <ele>1567</ele>
        <time>2018-04-16T11:15:40Z</time>
      </trkpt>
      <trkpt lat="43.75278" lon="6.77662">
        <ele>1569</ele>
        <time>2018-04-16T11:15:49Z</time>
      </trkpt>
      <trkpt lat="43.75286" lon="6.77662">
        <ele>1574</ele>
        <time>2018-04-16T11:16:02Z</time>
      </trkpt>
      <trkpt lat="43.75294" lon="6.77661">
        <ele>1578</ele>
        <time>2018-04-16T11:16:16Z</time>
      </trkpt>
      <trkpt lat="43.75298" lon="6.77664">
        <ele>1577</ele>
        <time>2018-04-16T11:16:25Z</time>
      </trkpt>
      <trkpt lat="43.75302" lon="6.77667">
        <ele>1577</ele>
        <time>2018-04-16T11:16:31Z</time>
      </trkpt>
      <trkpt lat="43.75306" lon="6.77672">
        <ele>1574</ele>
        <time>2018-04-16T11:16:37Z</time>
      </trkpt>
      <trkpt lat="43.7531" lon="6.77678">
        <ele>1575</ele>
        <time>2018-04-16T11:16:47Z</time>
      </trkpt>
      <trkpt lat="43.75313" lon="6.77683">
        <ele>1575</ele>
        <time>2018-04-16T11:16:53Z</time>
      </trkpt>
      <trkpt lat="43.75327" lon="6.77694">
        <ele>1575</ele>
        <time>2018-04-16T11:17:13Z</time>
      </trkpt>
      <trkpt lat="43.75332" lon="6.77696">
        <ele>1574</ele>
        <time>2018-04-16T11:17:17Z</time>
      </trkpt>
      <trkpt lat="43.75341" lon="6.77697">
        <ele>1574</ele>
        <time>2018-04-16T11:17:27Z</time>
      </trkpt>
      <trkpt lat="43.75345" lon="6.77699">
        <ele>1574</ele>
        <time>2018-04-16T11:17:32Z</time>
      </trkpt>
      <trkpt lat="43.7535" lon="6.77703">
        <ele>1574</ele>
        <time>2018-04-16T11:17:38Z</time>
      </trkpt>
      <trkpt lat="43.75354" lon="6.77708">
        <ele>1574</ele>
        <time>2018-04-16T11:17:44Z</time>
      </trkpt>
      <trkpt lat="43.75358" lon="6.77711">
        <ele>1574</ele>
        <time>2018-04-16T11:17:48Z</time>
      </trkpt>
      <trkpt lat="43.75362" lon="6.77715">
        <ele>1576</ele>
        <time>2018-04-16T11:17:56Z</time>
      </trkpt>
      <trkpt lat="43.75385" lon="6.7773">
        <ele>1573</ele>
        <time>2018-04-16T11:18:26Z</time>
      </trkpt>
      <trkpt lat="43.75394" lon="6.77735">
        <ele>1575</ele>
        <time>2018-04-16T11:18:38Z</time>
      </trkpt>
      <trkpt lat="43.75401" lon="6.77742">
        <ele>1571</ele>
        <time>2018-04-16T11:18:48Z</time>
      </trkpt>
      <trkpt lat="43.75406" lon="6.77745">
        <ele>1571</ele>
        <time>2018-04-16T11:18:53Z</time>
      </trkpt>
      <trkpt lat="43.75412" lon="6.77748">
        <ele>1571</ele>
        <time>2018-04-16T11:19:00Z</time>
      </trkpt>
      <trkpt lat="43.75423" lon="6.77752">
        <ele>1573</ele>
        <time>2018-04-16T11:19:12Z</time>
      </trkpt>
      <trkpt lat="43.75437" lon="6.77761">
        <ele>1568</ele>
        <time>2018-04-16T11:19:30Z</time>
      </trkpt>
      <trkpt lat="43.75441" lon="6.77763">
        <ele>1568</ele>
        <time>2018-04-16T11:19:37Z</time>
      </trkpt>
      <trkpt lat="43.75456" lon="6.77769">
        <ele>1568</ele>
        <time>2018-04-16T11:19:56Z</time>
      </trkpt>
      <trkpt lat="43.7546" lon="6.77773">
        <ele>1567</ele>
        <time>2018-04-16T11:20:01Z</time>
      </trkpt>
      <trkpt lat="43.75464" lon="6.77773">
        <ele>1567</ele>
        <time>2018-04-16T11:20:06Z</time>
      </trkpt>
      <trkpt lat="43.75469" lon="6.77772">
        <ele>1566</ele>
        <time>2018-04-16T11:20:12Z</time>
      </trkpt>
      <trkpt lat="43.75475" lon="6.77772">
        <ele>1566</ele>
        <time>2018-04-16T11:20:17Z</time>
      </trkpt>
      <trkpt lat="43.7549" lon="6.77773">
        <ele>1562</ele>
        <time>2018-04-16T11:20:32Z</time>
      </trkpt>
      <trkpt lat="43.75494" lon="6.77772">
        <ele>1562</ele>
        <time>2018-04-16T11:20:36Z</time>
      </trkpt>
      <trkpt lat="43.75504" lon="6.77767">
        <ele>1557</ele>
        <time>2018-04-16T11:20:46Z</time>
      </trkpt>
      <trkpt lat="43.75512" lon="6.77767">
        <ele>1556</ele>
        <time>2018-04-16T11:20:55Z</time>
      </trkpt>
      <trkpt lat="43.75517" lon="6.77767">
        <ele>1557</ele>
        <time>2018-04-16T11:21:01Z</time>
      </trkpt>
      <trkpt lat="43.75526" lon="6.77764">
        <ele>1559</ele>
        <time>2018-04-16T11:21:10Z</time>
      </trkpt>
      <trkpt lat="43.75536" lon="6.77763">
        <ele>1558</ele>
        <time>2018-04-16T11:21:22Z</time>
      </trkpt>
      <trkpt lat="43.75541" lon="6.77762">
        <ele>1559</ele>
        <time>2018-04-16T11:21:26Z</time>
      </trkpt>
      <trkpt lat="43.75545" lon="6.77763">
        <ele>1559</ele>
        <time>2018-04-16T11:21:31Z</time>
      </trkpt>
      <trkpt lat="43.75555" lon="6.7776">
        <ele>1557</ele>
        <time>2018-04-16T11:21:47Z</time>
      </trkpt>
      <trkpt lat="43.75564" lon="6.77755">
        <ele>1553</ele>
        <time>2018-04-16T11:22:00Z</time>
      </trkpt>
      <trkpt lat="43.75568" lon="6.77752">
        <ele>1553</ele>
        <time>2018-04-16T11:22:07Z</time>
      </trkpt>
      <trkpt lat="43.75573" lon="6.77751">
        <ele>1550</ele>
        <time>2018-04-16T11:22:13Z</time>
      </trkpt>
      <trkpt lat="43.75594" lon="6.77735">
        <ele>1535</ele>
        <time>2018-04-16T11:22:47Z</time>
      </trkpt>
      <trkpt lat="43.75598" lon="6.77732">
        <ele>1537</ele>
        <time>2018-04-16T11:22:52Z</time>
      </trkpt>
      <trkpt lat="43.75612" lon="6.77723">
        <ele>1532</ele>
        <time>2018-04-16T11:23:14Z</time>
      </trkpt>
      <trkpt lat="43.75621" lon="6.7772">
        <ele>1526</ele>
        <time>2018-04-16T11:23:29Z</time>
      </trkpt>
      <trkpt lat="43.75636" lon="6.77706">
        <ele>1518</ele>
        <time>2018-04-16T11:24:04Z</time>
      </trkpt>
      <trkpt lat="43.75641" lon="6.77703">
        <ele>1517</ele>
        <time>2018-04-16T11:24:09Z</time>
      </trkpt>
      <trkpt lat="43.75642" lon="6.77694">
        <ele>1514</ele>
        <time>2018-04-16T11:25:04Z</time>
      </trkpt>
      <trkpt lat="43.75647" lon="6.77697">
        <ele>1520</ele>
        <time>2018-04-16T11:25:56Z</time>
      </trkpt>
      <trkpt lat="43.75652" lon="6.77695">
        <ele>1517</ele>
        <time>2018-04-16T11:26:04Z</time>
      </trkpt>
      <trkpt lat="43.7566" lon="6.77686">
        <ele>1509</ele>
        <time>2018-04-16T11:26:20Z</time>
      </trkpt>
      <trkpt lat="43.75665" lon="6.77684">
        <ele>1508</ele>
        <time>2018-04-16T11:26:28Z</time>
      </trkpt>
      <trkpt lat="43.7567" lon="6.7768">
        <ele>1504</ele>
        <time>2018-04-16T11:26:34Z</time>
      </trkpt>
      <trkpt lat="43.75677" lon="6.77678">
        <ele>1501</ele>
        <time>2018-04-16T11:26:43Z</time>
      </trkpt>
      <trkpt lat="43.75691" lon="6.77667">
        <ele>1495</ele>
        <time>2018-04-16T11:27:01Z</time>
      </trkpt>
      <trkpt lat="43.75695" lon="6.77665">
        <ele>1494</ele>
        <time>2018-04-16T11:27:07Z</time>
      </trkpt>
      <trkpt lat="43.75699" lon="6.77662">
        <ele>1494</ele>
        <time>2018-04-16T11:27:12Z</time>
      </trkpt>
      <trkpt lat="43.75707" lon="6.77653">
        <ele>1492</ele>
        <time>2018-04-16T11:27:23Z</time>
      </trkpt>
      <trkpt lat="43.75711" lon="6.77648">
        <ele>1492</ele>
        <time>2018-04-16T11:27:29Z</time>
      </trkpt>
      <trkpt lat="43.75715" lon="6.77642">
        <ele>1492</ele>
        <time>2018-04-16T11:27:35Z</time>
      </trkpt>
      <trkpt lat="43.75718" lon="6.77635">
        <ele>1493</ele>
        <time>2018-04-16T11:27:55Z</time>
      </trkpt>
      <trkpt lat="43.75716" lon="6.77625">
        <ele>1494</ele>
        <time>2018-04-16T11:28:47Z</time>
      </trkpt>
      <trkpt lat="43.75726" lon="6.7761">
        <ele>1489</ele>
        <time>2018-04-16T11:29:20Z</time>
      </trkpt>
      <trkpt lat="43.75735" lon="6.77591">
        <ele>1480</ele>
        <time>2018-04-16T11:29:45Z</time>
      </trkpt>
      <trkpt lat="43.75748" lon="6.77579">
        <ele>1475</ele>
        <time>2018-04-16T11:30:05Z</time>
      </trkpt>
      <trkpt lat="43.75754" lon="6.77577">
        <ele>1472</ele>
        <time>2018-04-16T11:30:11Z</time>
      </trkpt>
      <trkpt lat="43.7576" lon="6.77575">
        <ele>1473</ele>
        <time>2018-04-16T11:30:18Z</time>
      </trkpt>
      <trkpt lat="43.75782" lon="6.77555">
        <ele>1461</ele>
        <time>2018-04-16T11:30:54Z</time>
      </trkpt>
      <trkpt lat="43.75786" lon="6.77551">
        <ele>1461</ele>
        <time>2018-04-16T11:30:59Z</time>
      </trkpt>
      <trkpt lat="43.7579" lon="6.77548">
        <ele>1460</ele>
        <time>2018-04-16T11:31:04Z</time>
      </trkpt>
      <trkpt lat="43.75798" lon="6.77541">
        <ele>1455</ele>
        <time>2018-04-16T11:31:15Z</time>
      </trkpt>
      <trkpt lat="43.75805" lon="6.77532">
        <ele>1453</ele>
        <time>2018-04-16T11:31:25Z</time>
      </trkpt>
      <trkpt lat="43.7581" lon="6.77528">
        <ele>1451</ele>
        <time>2018-04-16T11:31:31Z</time>
      </trkpt>
      <trkpt lat="43.75818" lon="6.77522">
        <ele>1450</ele>
        <time>2018-04-16T11:31:38Z</time>
      </trkpt>
      <trkpt lat="43.75823" lon="6.77519">
        <ele>1450</ele>
        <time>2018-04-16T11:31:43Z</time>
      </trkpt>
      <trkpt lat="43.7583" lon="6.77509">
        <ele>1450</ele>
        <time>2018-04-16T11:31:53Z</time>
      </trkpt>
      <trkpt lat="43.75834" lon="6.77497">
        <ele>1448</ele>
        <time>2018-04-16T11:31:59Z</time>
      </trkpt>
      <trkpt lat="43.75835" lon="6.77483">
        <ele>1449</ele>
        <time>2018-04-16T11:32:10Z</time>
      </trkpt>
      <trkpt lat="43.75844" lon="6.77458">
        <ele>1448</ele>
        <time>2018-04-16T11:32:30Z</time>
      </trkpt>
      <trkpt lat="43.75845" lon="6.77432">
        <ele>1443</ele>
        <time>2018-04-16T11:32:51Z</time>
      </trkpt>
      <trkpt lat="43.75844" lon="6.77414">
        <ele>1439</ele>
        <time>2018-04-16T11:33:05Z</time>
      </trkpt>
      <trkpt lat="43.75843" lon="6.77408">
        <ele>1437</ele>
        <time>2018-04-16T11:33:11Z</time>
      </trkpt>
      <trkpt lat="43.75843" lon="6.77401">
        <ele>1436</ele>
        <time>2018-04-16T11:33:16Z</time>
      </trkpt>
      <trkpt lat="43.75846" lon="6.77366">
        <ele>1428</ele>
        <time>2018-04-16T11:33:46Z</time>
      </trkpt>
      <trkpt lat="43.75846" lon="6.77359">
        <ele>1428</ele>
        <time>2018-04-16T11:33:52Z</time>
      </trkpt>
      <trkpt lat="43.75844" lon="6.77351">
        <ele>1426</ele>
        <time>2018-04-16T11:33:57Z</time>
      </trkpt>
      <trkpt lat="43.75846" lon="6.77344">
        <ele>1423</ele>
        <time>2018-04-16T11:34:04Z</time>
      </trkpt>
      <trkpt lat="43.75846" lon="6.77337">
        <ele>1423</ele>
        <time>2018-04-16T11:34:10Z</time>
      </trkpt>
      <trkpt lat="43.75846" lon="6.77328">
        <ele>1423</ele>
        <time>2018-04-16T11:34:16Z</time>
      </trkpt>
      <trkpt lat="43.75846" lon="6.77319">
        <ele>1422</ele>
        <time>2018-04-16T11:34:22Z</time>
      </trkpt>
      <trkpt lat="43.75842" lon="6.77308">
        <ele>1422</ele>
        <time>2018-04-16T11:34:33Z</time>
      </trkpt>
      <trkpt lat="43.75838" lon="6.77282">
        <ele>1416</ele>
        <time>2018-04-16T11:34:53Z</time>
      </trkpt>
      <trkpt lat="43.75837" lon="6.77269">
        <ele>1416</ele>
        <time>2018-04-16T11:35:03Z</time>
      </trkpt>
      <trkpt lat="43.75838" lon="6.77238">
        <ele>1410</ele>
        <time>2018-04-16T11:35:30Z</time>
      </trkpt>
      <trkpt lat="43.75838" lon="6.77221">
        <ele>1408</ele>
        <time>2018-04-16T11:36:29Z</time>
      </trkpt>
      <trkpt lat="43.7585" lon="6.772">
        <ele>1396</ele>
        <time>2018-04-16T11:36:50Z</time>
      </trkpt>
      <trkpt lat="43.75853" lon="6.77161">
        <ele>1386</ele>
        <time>2018-04-16T11:37:18Z</time>
      </trkpt>
      <trkpt lat="43.75867" lon="6.77127">
        <ele>1378</ele>
        <time>2018-04-16T11:37:48Z</time>
      </trkpt>
      <trkpt lat="43.7587" lon="6.77115">
        <ele>1378</ele>
        <time>2018-04-16T11:37:55Z</time>
      </trkpt>
      <trkpt lat="43.75874" lon="6.77103">
        <ele>1377</ele>
        <time>2018-04-16T11:38:04Z</time>
      </trkpt>
      <trkpt lat="43.75872" lon="6.7709">
        <ele>1377</ele>
        <time>2018-04-16T11:38:14Z</time>
      </trkpt>
      <trkpt lat="43.75867" lon="6.77079">
        <ele>1375</ele>
        <time>2018-04-16T11:38:27Z</time>
      </trkpt>
      <trkpt lat="43.75867" lon="6.77071">
        <ele>1372</ele>
        <time>2018-04-16T11:38:33Z</time>
      </trkpt>
      <trkpt lat="43.75867" lon="6.77058">
        <ele>1372</ele>
        <time>2018-04-16T11:38:44Z</time>
      </trkpt>
      <trkpt lat="43.75867" lon="6.77045">
        <ele>1369</ele>
        <time>2018-04-16T11:38:54Z</time>
      </trkpt>
      <trkpt lat="43.75865" lon="6.77019">
        <ele>1368</ele>
        <time>2018-04-16T11:39:16Z</time>
      </trkpt>
      <trkpt lat="43.75869" lon="6.77006">
        <ele>1367</ele>
        <time>2018-04-16T11:39:26Z</time>
      </trkpt>
      <trkpt lat="43.7587" lon="6.76993">
        <ele>1364</ele>
        <time>2018-04-16T11:39:36Z</time>
      </trkpt>
      <trkpt lat="43.75877" lon="6.76985">
        <ele>1363</ele>
        <time>2018-04-16T11:39:46Z</time>
      </trkpt>
      <trkpt lat="43.75882" lon="6.76975">
        <ele>1365</ele>
        <time>2018-04-16T11:39:56Z</time>
      </trkpt>
      <trkpt lat="43.75885" lon="6.76969">
        <ele>1369</ele>
        <time>2018-04-16T11:40:17Z</time>
      </trkpt>
      <trkpt lat="43.75885" lon="6.76948">
        <ele>1369</ele>
        <time>2018-04-16T11:40:44Z</time>
      </trkpt>
      <trkpt lat="43.75885" lon="6.76936">
        <ele>1368</ele>
        <time>2018-04-16T11:40:54Z</time>
      </trkpt>
      <trkpt lat="43.75887" lon="6.76929">
        <ele>1365</ele>
        <time>2018-04-16T11:41:00Z</time>
      </trkpt>
      <trkpt lat="43.75888" lon="6.76923">
        <ele>1365</ele>
        <time>2018-04-16T11:41:05Z</time>
      </trkpt>
      <trkpt lat="43.75888" lon="6.76916">
        <ele>1366</ele>
        <time>2018-04-16T11:41:10Z</time>
      </trkpt>
      <trkpt lat="43.7589" lon="6.76908">
        <ele>1366</ele>
        <time>2018-04-16T11:41:15Z</time>
      </trkpt>
      <trkpt lat="43.7589" lon="6.76893">
        <ele>1367</ele>
        <time>2018-04-16T11:41:27Z</time>
      </trkpt>
      <trkpt lat="43.75884" lon="6.76887">
        <ele>1368</ele>
        <time>2018-04-16T11:41:36Z</time>
      </trkpt>
      <trkpt lat="43.75879" lon="6.7687">
        <ele>1366</ele>
        <time>2018-04-16T11:41:59Z</time>
      </trkpt>
      <trkpt lat="43.75882" lon="6.76857">
        <ele>1365</ele>
        <time>2018-04-16T11:42:13Z</time>
      </trkpt>
      <trkpt lat="43.75881" lon="6.76846">
        <ele>1364</ele>
        <time>2018-04-16T11:42:19Z</time>
      </trkpt>
      <trkpt lat="43.75874" lon="6.76837">
        <ele>1361</ele>
        <time>2018-04-16T11:42:31Z</time>
      </trkpt>
      <trkpt lat="43.75865" lon="6.76831">
        <ele>1360</ele>
        <time>2018-04-16T11:42:42Z</time>
      </trkpt>
      <trkpt lat="43.75861" lon="6.76826">
        <ele>1360</ele>
        <time>2018-04-16T11:42:48Z</time>
      </trkpt>
      <trkpt lat="43.75856" lon="6.76814">
        <ele>1358</ele>
        <time>2018-04-16T11:43:01Z</time>
      </trkpt>
      <trkpt lat="43.75854" lon="6.76801">
        <ele>1357</ele>
        <time>2018-04-16T11:43:14Z</time>
      </trkpt>
      <trkpt lat="43.75851" lon="6.76787">
        <ele>1361</ele>
        <time>2018-04-16T11:43:27Z</time>
      </trkpt>
      <trkpt lat="43.75845" lon="6.76776">
        <ele>1364</ele>
        <time>2018-04-16T11:43:41Z</time>
      </trkpt>
      <trkpt lat="43.75846" lon="6.76754">
        <ele>1363</ele>
        <time>2018-04-16T11:44:07Z</time>
      </trkpt>
      <trkpt lat="43.75836" lon="6.76718">
        <ele>1358</ele>
        <time>2018-04-16T11:44:35Z</time>
      </trkpt>
      <trkpt lat="43.75837" lon="6.76705">
        <ele>1357</ele>
        <time>2018-04-16T11:44:47Z</time>
      </trkpt>
      <trkpt lat="43.75836" lon="6.76677">
        <ele>1361</ele>
        <time>2018-04-16T11:45:09Z</time>
      </trkpt>
      <trkpt lat="43.75834" lon="6.76664">
        <ele>1363</ele>
        <time>2018-04-16T11:45:20Z</time>
      </trkpt>
      <trkpt lat="43.75829" lon="6.76645">
        <ele>1362</ele>
        <time>2018-04-16T11:45:41Z</time>
      </trkpt>
      <trkpt lat="43.75829" lon="6.76636">
        <ele>1361</ele>
        <time>2018-04-16T11:45:47Z</time>
      </trkpt>
      <trkpt lat="43.75834" lon="6.76611">
        <ele>1354</ele>
        <time>2018-04-16T11:46:06Z</time>
      </trkpt>
      <trkpt lat="43.75827" lon="6.76599">
        <ele>1353</ele>
        <time>2018-04-16T11:46:18Z</time>
      </trkpt>
      <trkpt lat="43.75824" lon="6.76593">
        <ele>1355</ele>
        <time>2018-04-16T11:46:28Z</time>
      </trkpt>
      <trkpt lat="43.75819" lon="6.7659">
        <ele>1357</ele>
        <time>2018-04-16T11:46:34Z</time>
      </trkpt>
      <trkpt lat="43.75811" lon="6.76584">
        <ele>1354</ele>
        <time>2018-04-16T11:46:46Z</time>
      </trkpt>
      <trkpt lat="43.75807" lon="6.7658">
        <ele>1355</ele>
        <time>2018-04-16T11:46:54Z</time>
      </trkpt>
      <trkpt lat="43.75805" lon="6.76574">
        <ele>1354</ele>
        <time>2018-04-16T11:47:01Z</time>
      </trkpt>
      <trkpt lat="43.75801" lon="6.76556">
        <ele>1351</ele>
        <time>2018-04-16T11:47:31Z</time>
      </trkpt>
      <trkpt lat="43.75796" lon="6.76556">
        <ele>1352</ele>
        <time>2018-04-16T11:47:37Z</time>
      </trkpt>
      <trkpt lat="43.75792" lon="6.76561">
        <ele>1355</ele>
        <time>2018-04-16T11:47:59Z</time>
      </trkpt>
      <trkpt lat="43.75785" lon="6.76546">
        <ele>1352</ele>
        <time>2018-04-16T11:48:27Z</time>
      </trkpt>
      <trkpt lat="43.75784" lon="6.76539">
        <ele>1353</ele>
        <time>2018-04-16T11:48:34Z</time>
      </trkpt>
      <trkpt lat="43.75779" lon="6.76533">
        <ele>1351</ele>
        <time>2018-04-16T11:48:40Z</time>
      </trkpt>
      <trkpt lat="43.75778" lon="6.76527">
        <ele>1351</ele>
        <time>2018-04-16T11:48:46Z</time>
      </trkpt>
      <trkpt lat="43.75776" lon="6.7652">
        <ele>1352</ele>
        <time>2018-04-16T11:48:53Z</time>
      </trkpt>
      <trkpt lat="43.75773" lon="6.7651">
        <ele>1351</ele>
        <time>2018-04-16T11:49:12Z</time>
      </trkpt>
      <trkpt lat="43.75771" lon="6.76503">
        <ele>1352</ele>
        <time>2018-04-16T11:49:17Z</time>
      </trkpt>
      <trkpt lat="43.75763" lon="6.76495">
        <ele>1351</ele>
        <time>2018-04-16T11:49:25Z</time>
      </trkpt>
      <trkpt lat="43.75746" lon="6.76467">
        <ele>1343</ele>
        <time>2018-04-16T11:49:58Z</time>
      </trkpt>
      <trkpt lat="43.75742" lon="6.76457">
        <ele>1341</ele>
        <time>2018-04-16T11:50:14Z</time>
      </trkpt>
      <trkpt lat="43.75738" lon="6.76452">
        <ele>1340</ele>
        <time>2018-04-16T11:50:19Z</time>
      </trkpt>
      <trkpt lat="43.75732" lon="6.76443">
        <ele>1342</ele>
        <time>2018-04-16T11:50:30Z</time>
      </trkpt>
      <trkpt lat="43.75731" lon="6.76436">
        <ele>1341</ele>
        <time>2018-04-16T11:50:35Z</time>
      </trkpt>
      <trkpt lat="43.75728" lon="6.76423">
        <ele>1340</ele>
        <time>2018-04-16T11:50:46Z</time>
      </trkpt>
      <trkpt lat="43.75723" lon="6.76415">
        <ele>1341</ele>
        <time>2018-04-16T11:50:55Z</time>
      </trkpt>
      <trkpt lat="43.7571" lon="6.76408">
        <ele>1346</ele>
        <time>2018-04-16T11:51:19Z</time>
      </trkpt>
      <trkpt lat="43.75706" lon="6.76405">
        <ele>1346</ele>
        <time>2018-04-16T11:51:26Z</time>
      </trkpt>
      <trkpt lat="43.75703" lon="6.76399">
        <ele>1345</ele>
        <time>2018-04-16T11:51:32Z</time>
      </trkpt>
      <trkpt lat="43.75698" lon="6.76395">
        <ele>1346</ele>
        <time>2018-04-16T11:51:39Z</time>
      </trkpt>
      <trkpt lat="43.75693" lon="6.76392">
        <ele>1345</ele>
        <time>2018-04-16T11:51:54Z</time>
      </trkpt>
      <trkpt lat="43.75688" lon="6.76388">
        <ele>1346</ele>
        <time>2018-04-16T11:52:00Z</time>
      </trkpt>
      <trkpt lat="43.75678" lon="6.76383">
        <ele>1345</ele>
        <time>2018-04-16T11:52:12Z</time>
      </trkpt>
      <trkpt lat="43.7567" lon="6.76384">
        <ele>1345</ele>
        <time>2018-04-16T11:52:28Z</time>
      </trkpt>
      <trkpt lat="43.75663" lon="6.76388">
        <ele>1347</ele>
        <time>2018-04-16T11:52:38Z</time>
      </trkpt>
      <trkpt lat="43.75649" lon="6.76387">
        <ele>1347</ele>
        <time>2018-04-16T11:52:59Z</time>
      </trkpt>
      <trkpt lat="43.75644" lon="6.76384">
        <ele>1347</ele>
        <time>2018-04-16T11:53:06Z</time>
      </trkpt>
      <trkpt lat="43.75639" lon="6.76382">
        <ele>1347</ele>
        <time>2018-04-16T11:53:12Z</time>
      </trkpt>
      <trkpt lat="43.75631" lon="6.76377">
        <ele>1350</ele>
        <time>2018-04-16T11:53:23Z</time>
      </trkpt>
      <trkpt lat="43.75613" lon="6.76352">
        <ele>1346</ele>
        <time>2018-04-16T11:53:59Z</time>
      </trkpt>
      <trkpt lat="43.75609" lon="6.76344">
        <ele>1345</ele>
        <time>2018-04-16T11:54:08Z</time>
      </trkpt>
      <trkpt lat="43.75605" lon="6.76329">
        <ele>1346</ele>
        <time>2018-04-16T11:54:22Z</time>
      </trkpt>
      <trkpt lat="43.75605" lon="6.76322">
        <ele>1346</ele>
        <time>2018-04-16T11:54:30Z</time>
      </trkpt>
      <trkpt lat="43.75606" lon="6.76316">
        <ele>1347</ele>
        <time>2018-04-16T11:54:42Z</time>
      </trkpt>
      <trkpt lat="43.75609" lon="6.76309">
        <ele>1346</ele>
        <time>2018-04-16T11:54:49Z</time>
      </trkpt>
      <trkpt lat="43.75612" lon="6.76304">
        <ele>1345</ele>
        <time>2018-04-16T11:54:56Z</time>
      </trkpt>
      <trkpt lat="43.75616" lon="6.76301">
        <ele>1342</ele>
        <time>2018-04-16T11:55:16Z</time>
      </trkpt>
    </trkseg>
  </trk>
</gpx>